Time;durP1;ratioP1;P1;durP2;ratioP2;P2;SDS_P1;SDS_P2;PMS_P1;PMS_P2;Temp;Humidity;BMP_temperature;BMP_pressure;BME280_temperature;BME280_humidity;BME280_pressure;Samples;Min_cycle;Max_cycle;Signal;HPM_P1;HPM_P2
2023/02/01 00:01:13;;;;;;;3.47;2.90;;;;;;;-0.28;82.21;96369.94;5072579;28;20139;-62
2023/02/01 00:03:40;;;;;;;4.45;2.78;;;;;;;-0.26;82.94;96372.50;5072673;28;20068;-63
2023/02/01 00:06:08;;;;;;;5.57;3.67;;;;;;;-0.29;82.97;96368.22;5076104;28;20125;-63
2023/02/01 00:08:36;;;;;;;5.13;3.58;;;;;;;-0.22;83.28;96381.06;5076029;28;20048;-63
2023/02/01 00:11:07;;;;;;;3.97;3.35;;;;;;;-0.21;83.46;96381.06;5075692;28;20052;-62
2023/02/01 00:13:37;;;;;;;3.35;2.97;;;;;;;-0.17;83.27;96374.22;5075968;28;20051;-63
2023/02/01 00:16:06;;;;;;;3.22;2.47;;;;;;;-0.11;83.30;96374.25;5075882;28;20068;-63
2023/02/01 00:18:34;;;;;;;2.42;2.22;;;;;;;-0.13;82.65;96366.53;5075862;28;20067;-62
2023/02/01 00:21:03;;;;;;;2.22;2.03;;;;;;;-0.13;82.91;96368.22;5075864;28;20041;-63
2023/02/01 00:23:32;;;;;;;3.05;2.70;;;;;;;-0.13;82.86;96370.81;5076021;28;20079;-62
2023/02/01 00:26:01;;;;;;;4.60;2.05;;;;;;;-0.20;82.79;96366.50;5075733;28;20545;-63
2023/02/01 00:28:30;;;;;;;3.72;2.60;;;;;;;-0.15;83.46;96377.69;5075705;28;20494;-62
2023/02/01 00:30:58;;;;;;;2.45;2.25;;;;;;;-0.13;83.44;96374.25;5075619;28;20489;-62
2023/02/01 00:33:25;;;;;;;2.70;2.45;;;;;;;-0.09;83.35;96375.09;5075637;28;20052;-62
2023/02/01 00:35:57;;;;;;;3.67;3.10;;;;;;;-0.03;83.17;96372.53;5075538;28;20059;-62
2023/02/01 00:38:24;;;;;;;4.68;3.03;;;;;;;0.00;83.57;96379.41;5075482;28;20048;-63
2023/02/01 00:40:51;;;;;;;3.63;2.90;;;;;;;-0.06;83.95;96377.66;5075451;28;20052;-62
2023/02/01 00:43:18;;;;;;;2.88;2.35;;;;;;;-0.05;83.46;96369.13;5075549;28;20490;-62
2023/02/01 00:45:48;;;;;;;4.70;3.60;;;;;;;-0.16;83.89;96378.50;5075327;28;20049;-62
2023/02/01 00:48:15;;;;;;;8.85;4.95;;;;;;;-0.12;84.58;96369.94;5075369;28;20398;-62
2023/02/01 00:50:45;;;;;;;3.35;3.05;;;;;;;-0.08;83.85;96363.97;5075202;28;20083;-62
2023/02/01 00:53:13;;;;;;;4.95;3.08;;;;;;;0.01;83.47;96372.53;5075245;28;20110;-62
2023/02/01 00:55:41;;;;;;;7.82;3.75;;;;;;;0.02;83.03;96377.69;5075198;28;20049;-63
2023/02/01 00:58:09;;;;;;;5.18;3.53;;;;;;;0.07;83.34;96369.97;5075372;28;20052;-63
2023/02/01 01:00:36;;;;;;;3.25;2.95;;;;;;;0.05;83.21;96371.69;5075280;28;20055;-63
2023/02/01 01:03:17;;;;;;;3.33;3.00;;;;;;;0.03;83.25;96365.69;5075092;28;20080;-62
2023/02/01 01:05:44;;;;;;;4.35;3.00;;;;;;;0.05;83.14;96364.84;5074892;28;20054;-62
2023/02/01 01:08:12;;;;;;;5.00;3.08;;;;;;;0.08;82.79;96354.53;5074919;28;20052;-62
2023/02/01 01:10:39;;;;;;;4.63;3.53;;;;;;;0.08;82.93;96358.81;5074881;28;20052;-62
2023/02/01 01:13:06;;;;;;;4.25;3.65;;;;;;;0.06;82.58;96352.84;5074615;28;20111;-62
2023/02/01 01:15:37;;;;;;;6.57;4.00;;;;;;;0.01;82.02;96351.97;5073875;28;20406;-62
2023/02/01 01:18:07;;;;;;;8.25;4.40;;;;;;;-0.03;81.85;96351.97;5074726;28;20048;-61
2023/02/01 01:20:37;;;;;;;8.45;3.90;;;;;;;-0.09;81.57;96356.25;5075043;28;20087;-62
2023/02/01 01:23:05;;;;;;;5.25;3.97;;;;;;;-0.15;81.26;96360.50;5074586;28;20052;-62
2023/02/01 01:25:33;;;;;;;7.13;4.40;;;;;;;-0.21;81.20;96360.50;5074626;28;20139;-62
2023/02/01 01:28:01;;;;;;;4.95;3.50;;;;;;;-0.28;80.94;96364.78;5074473;28;20059;-61
2023/02/01 01:30:28;;;;;;;8.27;3.65;;;;;;;-0.33;80.42;96351.03;5074392;28;20048;-62
2023/02/01 01:32:55;;;;;;;6.80;2.92;;;;;;;-0.43;80.38;96362.16;5074540;28;20052;-62
2023/02/01 01:35:23;;;;;;;8.13;3.58;;;;;;;-0.50;80.65;96356.16;5074543;28;20052;-61
2023/02/01 01:37:51;;;;;;;8.35;3.45;;;;;;;-0.53;80.37;96361.28;5074427;28;20067;-62
2023/02/01 01:40:18;;;;;;;7.15;3.78;;;;;;;-0.60;80.09;96354.41;5074289;28;20098;-62
2023/02/01 01:42:45;;;;;;;4.13;3.03;;;;;;;-0.66;80.25;96358.66;5074495;28;20076;-62
2023/02/01 01:45:22;;;;;;;7.38;3.55;;;;;;;-0.72;79.96;96360.38;5074247;28;20049;-62
2023/02/01 01:47:54;;;;;;;6.03;3.20;;;;;;;-0.80;79.98;96358.63;5074217;28;20048;-61
2023/02/01 01:50:25;;;;;;;7.20;2.97;;;;;;;-0.94;80.05;96361.13;5074032;28;20063;-61
2023/02/01 01:52:55;;;;;;;5.38;3.30;;;;;;;-1.09;80.32;96354.22;5074124;28;20135;-61
2023/02/01 01:55:25;;;;;;;6.88;3.05;;;;;;;-1.16;80.35;96349.91;5074047;28;20083;-61
2023/02/01 01:57:58;;;;;;;6.55;2.88;;;;;;;-1.25;80.59;96358.41;5074029;28;20084;-61
2023/02/01 02:00:26;;;;;;;3.33;2.97;;;;;;;-1.29;81.10;96365.22;5074039;28;20124;-61
2023/02/01 02:02:59;;;;;;;5.00;2.53;;;;;;;-1.37;81.18;96355.75;5074009;28;20055;-62
2023/02/01 02:05:28;;;;;;;4.78;3.00;;;;;;;-1.35;81.12;96364.34;5073860;28;20524;-62
2023/02/01 02:08:00;;;;;;;4.70;3.10;;;;;;;-1.39;81.03;96360.88;5073903;28;20140;-61
2023/02/01 02:10:59;;;;;;;3.63;2.95;;;;;;;-1.43;81.15;96365.16;5073798;28;20056;-62
2023/02/01 02:13:16;;;;;;;2.72;2.50;;;;;;;-1.49;81.45;96362.53;5073668;28;20051;-62
2023/02/01 02:15:53;;;;;;;4.88;3.45;;;;;;;-1.56;81.71;96368.47;5073540;28;20091;-62
2023/02/01 02:18:30;;;;;;;3.83;2.65;;;;;;;-1.55;82.17;96370.19;5073617;28;20048;-62
2023/02/01 02:21:26;;;;;;;4.97;3.25;;;;;;;-1.51;82.28;96371.94;5073587;28;20052;-62
2023/02/01 02:24:56;;;;;;;4.32;3.15;;;;;;;-1.49;82.60;96366.81;5071887;28;20485;-62
2023/02/01 02:27:41;;;;;;;54.60;43.92;;;;;;;-1.47;83.21;96362.56;5073061;28;20444;-62
2023/02/01 02:30:46;;;;;;;20.50;13.73;;;;;;;-1.45;83.45;96359.13;5073375;28;20098;-62
2023/02/01 02:33:49;;;;;;;10.35;6.78;;;;;;;-1.42;83.87;96368.56;5073347;28;20051;-62
2023/02/01 02:36:24;;;;;;;4.10;3.25;;;;;;;-1.42;83.42;96361.72;5073266;28;20048;-62
2023/02/01 02:39:03;;;;;;;5.03;3.88;;;;;;;-1.38;83.55;96366.88;5073351;28;20122;-62
2023/02/01 02:47:24;;;;;;;5.38;3.65;;;;;;;-1.53;83.88;96360.81;5073564;28;20052;-61
2023/02/01 02:55:40;;;;;;;5.38;3.70;;;;;;;-1.63;85.16;96366.72;5073383;28;20438;-62
2023/02/01 03:06:28;;;;;;;5.03;3.95;;;;;;;-1.67;84.69;96376.09;5073148;28;20052;-62
2023/02/01 03:08:58;;;;;;;3.92;3.50;;;;;;;-1.62;84.52;96379.56;5073022;28;20568;-62
2023/02/01 03:12:55;;;;;;;5.57;3.53;;;;;;;-1.59;84.49;96374.47;5072839;28;20052;-62
2023/02/01 03:14:15;;;;;;;4.30;3.65;;;;;;;-1.53;83.97;96378.78;5072856;28;20499;-62
2023/02/01 03:16:48;;;;;;;4.55;3.00;;;;;;;-1.56;83.61;96384.72;5072934;28;20055;-62
2023/02/01 03:19:20;;;;;;;3.92;3.28;;;;;;;-1.57;83.09;96383.00;5072953;28;20076;-62
2023/02/01 03:21:54;;;;;;;3.70;2.80;;;;;;;-1.60;82.85;96384.72;5072862;28;20055;-62
2023/02/01 03:24:32;;;;;;;4.93;2.63;;;;;;;-1.65;83.39;96390.63;5072922;28;20063;-62
2023/02/01 03:27:06;;;;;;;4.85;2.75;;;;;;;-1.63;83.08;96384.69;5072850;28;20044;-62
2023/02/01 03:29:42;;;;;;;3.80;3.25;;;;;;;-1.65;83.34;96380.38;5073199;28;20174;-61
2023/02/01 03:32:10;;;;;;;3.28;2.70;;;;;;;-1.65;82.92;96382.09;5072633;28;20139;-62
2023/02/01 03:34:38;;;;;;;3.92;2.67;;;;;;;-1.66;83.32;96382.94;5072863;28;20408;-61
2023/02/01 03:37:11;;;;;;;5.70;2.72;;;;;;;-1.66;83.34;96390.63;5072779;28;20048;-62
2023/02/01 03:39:45;;;;;;;2.72;2.33;;;;;;;-1.73;82.77;96392.31;5074725;28;20123;-62
2023/02/01 03:42:18;;;;;;;4.13;3.17;;;;;;;-1.81;82.81;96384.53;5076602;28;20044;-61
2023/02/01 03:44:50;;;;;;;3.63;3.33;;;;;;;-1.81;83.47;96383.66;5076770;28;20098;-62
2023/02/01 03:47:25;;;;;;;3.50;2.70;;;;;;;-1.89;83.67;96387.88;5076525;28;20044;-61
2023/02/01 03:49:57;;;;;;;3.95;2.55;;;;;;;-1.86;83.64;96393.91;5076611;28;20156;-62
2023/02/01 03:52:30;;;;;;;2.80;2.17;;;;;;;-1.84;82.96;96388.78;5076203;28;20055;-62
2023/02/01 03:54:59;;;;;;;2.92;2.35;;;;;;;-1.87;82.86;96378.50;5076329;28;20049;-61
2023/02/01 03:57:31;;;;;;;3.67;2.42;;;;;;;-1.88;82.69;96382.75;5076326;28;20045;-62
2023/02/01 04:00:06;;;;;;;2.78;2.28;;;;;;;-1.84;82.60;96388.78;5076172;28;20525;-62
2023/02/01 04:02:34;;;;;;;6.38;2.42;;;;;;;-1.86;82.04;96393.91;5076146;28;20139;-61
2023/02/01 04:05:01;;;;;;;2.50;2.30;;;;;;;-1.89;82.22;96385.31;5076109;28;20052;-62
2023/02/01 04:07:30;;;;;;;3.67;2.63;;;;;;;-1.93;81.88;96382.72;5076024;28;20482;-61
2023/02/01 04:09:57;;;;;;;3.15;2.80;;;;;;;-1.98;80.85;96376.72;5076313;28;20087;-61
2023/02/01 04:12:24;;;;;;;4.78;4.28;;;;;;;-2.14;81.57;96369.72;5075607;28;20056;-62
2023/02/01 04:14:52;;;;;;;2.78;2.50;;;;;;;-2.35;83.22;96374.63;5076065;28;20045;-62
2023/02/01 04:17:19;;;;;;;3.13;2.15;;;;;;;-2.35;84.13;96377.19;5075854;28;20131;-61
2023/02/01 04:19:47;;;;;;;12.50;2.55;;;;;;;-2.37;84.53;96378.03;5075894;28;20045;-60
2023/02/01 04:22:14;;;;;;;3.78;2.40;;;;;;;-2.35;84.53;96381.47;5075743;28;20498;-61
2023/02/01 04:24:43;;;;;;;2.20;2.00;;;;;;;-2.43;83.81;96379.69;5075860;28;20063;-62
2023/02/01 04:27:12;;;;;;;5.63;2.03;;;;;;;-2.41;83.78;96384.81;5075967;28;20040;-61
2023/02/01 04:29:39;;;;;;;2.50;1.83;;;;;;;-2.47;82.94;96387.34;5075968;28;20059;-62
2023/02/01 04:32:09;;;;;;;4.03;1.85;;;;;;;-2.57;82.84;96387.22;5075640;28;20127;-61
2023/02/01 04:34:37;;;;;;;4.63;2.22;;;;;;;-2.64;83.09;96385.44;5075652;28;20049;-62
2023/02/01 04:37:05;;;;;;;5.70;2.47;;;;;;;-2.62;82.96;96383.72;5075533;28;20057;-61
2023/02/01 04:39:33;;;;;;;3.38;2.28;;;;;;;-2.56;82.01;96393.22;5075499;28;20047;-61
2023/02/01 04:42:02;;;;;;;5.22;2.47;;;;;;;-2.34;80.64;96396.00;5075552;28;20052;-61
2023/02/01 04:44:30;;;;;;;3.72;2.13;;;;;;;-2.15;80.33;96391.91;5075387;28;20046;-61
2023/02/01 04:46:58;;;;;;;4.25;1.95;;;;;;;-1.95;79.16;96404.06;5075351;28;20045;-61
2023/02/01 04:49:26;;;;;;;6.10;2.30;;;;;;;-1.81;78.05;96404.19;5075341;28;20490;-61
2023/02/01 04:51:53;;;;;;;5.28;1.70;;;;;;;-1.68;76.33;96418.84;5075212;28;20048;-61
2023/02/01 04:54:21;;;;;;;2.50;1.75;;;;;;;-1.60;76.68;96424.03;5075274;28;20127;-62
2023/02/01 04:56:48;;;;;;;3.67;1.73;;;;;;;-1.53;76.43;96422.41;5075123;28;20056;-60
2023/02/01 04:59:17;;;;;;;2.38;1.98;;;;;;;-1.48;76.86;96428.41;5075188;28;20048;-60
2023/02/01 05:01:44;;;;;;;3.55;2.30;;;;;;;-1.50;77.36;96422.41;5075203;28;20072;-61
2023/02/01 05:04:12;;;;;;;2.63;1.60;;;;;;;-1.51;75.02;96428.38;5075192;28;20044;-61
2023/02/01 05:06:39;;;;;;;6.28;2.10;;;;;;;-1.45;76.42;96428.44;5075080;28;20075;-61
2023/02/01 05:09:07;;;;;;;2.42;1.70;;;;;;;-1.56;75.73;96430.06;5074966;28;20102;-62
2023/02/01 05:14:20;;;;;;;2.60;1.75;;;;;;;-1.57;76.65;96418.94;5074936;28;20410;-61
2023/02/01 05:16:48;;;;;;;6.82;2.10;;;;;;;-1.54;76.71;96413.81;5074948;28;20049;-61
2023/02/01 05:19:15;;;;;;;7.25;2.38;;;;;;;-1.54;77.28;96416.38;5074751;28;20456;-61
2023/02/01 05:21:42;;;;;;;23.33;14.50;;;;;;;-1.53;77.11;96418.09;5074823;28;20135;-61
2023/02/01 05:24:12;;;;;;;15.25;10.65;;;;;;;-1.51;77.22;96423.25;5074610;28;20048;-61
2023/02/01 05:26:41;;;;;;;31.38;18.80;;;;;;;-1.59;77.93;96437.72;5074667;28;20052;-61
2023/02/01 05:29:09;;;;;;;13.45;7.90;;;;;;;-1.56;76.44;96440.31;5074485;28;20063;-61
2023/02/01 05:31:39;;;;;;;6.35;3.60;;;;;;;-1.61;77.12;96442.84;5074355;28;20109;-61
2023/02/01 05:34:07;;;;;;;5.33;3.03;;;;;;;-1.48;76.33;96438.66;5074436;28;20044;-61
2023/02/01 05:36:35;;;;;;;2.80;2.58;;;;;;;-1.40;75.65;96436.16;5074642;28;20482;-61
2023/02/01 05:39:02;;;;;;;5.70;2.45;;;;;;;-1.30;75.96;96431.94;5074339;28;20494;-62
2023/02/01 05:41:30;;;;;;;6.35;3.15;;;;;;;-1.23;75.50;96422.59;5074573;28;20076;-61
2023/02/01 05:43:57;;;;;;;8.10;3.63;;;;;;;-1.17;75.22;96432.91;5074207;28;20135;-61
2023/02/01 05:46:24;;;;;;;3.15;2.65;;;;;;;-1.14;76.25;96432.94;5074269;28;20426;-62
2023/02/01 05:48:53;;;;;;;4.20;2.60;;;;;;;-1.13;74.59;96419.25;5074223;28;20045;-62
2023/02/01 05:51:20;;;;;;;5.75;3.35;;;;;;;-1.07;74.72;96432.13;5074084;28;20052;-62
2023/02/01 05:53:48;;;;;;;4.85;2.33;;;;;;;-0.93;73.44;96428.78;5074185;28;20048;-62
2023/02/01 05:56:15;;;;;;;5.38;2.38;;;;;;;-0.90;74.38;96432.22;5073974;28;20048;-62
2023/02/01 05:58:42;;;;;;;6.15;2.30;;;;;;;-0.86;73.57;96433.09;5074039;28;20052;-62
2023/02/01 06:01:09;;;;;;;5.00;2.60;;;;;;;-0.73;72.71;96435.75;5073683;28;20067;-62
2023/02/01 06:03:36;;;;;;;5.22;2.83;;;;;;;-0.65;72.76;96432.38;5073713;28;20048;-62
2023/02/01 06:06:06;;;;;;;3.40;2.40;;;;;;;-0.65;73.87;96431.50;5073819;28;20076;-62
2023/02/01 06:08:33;;;;;;;3.72;2.45;;;;;;;-0.65;72.74;96434.94;5074041;28;20049;-62
2023/02/01 06:11:01;;;;;;;4.50;2.30;;;;;;;-0.59;72.49;96441.81;5073430;28;20387;-62
2023/02/01 06:13:28;;;;;;;5.68;2.67;;;;;;;-0.44;71.77;96440.16;5073645;28;20055;-62
2023/02/01 06:15:55;;;;;;;8.60;3.63;;;;;;;-0.17;71.22;96448.81;5073650;28;20102;-62
2023/02/01 06:18:22;;;;;;;6.85;3.15;;;;;;;-0.05;68.97;96450.56;5073683;28;20045;-62
2023/02/01 06:20:54;;;;;;;7.95;3.35;;;;;;;-0.17;69.12;96472.81;5073608;28;20044;-62
2023/02/01 06:23:23;;;;;;;3.70;2.58;;;;;;;-0.27;69.76;96464.19;5073635;28;20046;-62
2023/02/01 06:25:52;;;;;;;4.38;2.35;;;;;;;-0.40;68.94;96460.72;5073546;28;20384;-62
2023/02/01 06:28:19;;;;;;;5.13;2.20;;;;;;;-0.45;69.96;96461.56;5073515;28;20544;-62
2023/02/01 06:30:46;;;;;;;4.25;2.75;;;;;;;-0.39;69.81;96462.44;5073426;28;20044;-62
2023/02/01 06:33:15;;;;;;;3.13;2.10;;;;;;;0.05;71.10;96451.44;5073420;28;20086;-62
2023/02/01 06:35:44;;;;;;;3.88;1.67;;;;;;;2.16;69.47;96456.22;5073361;28;20101;-62
2023/02/01 06:38:12;;;;;;;3.10;1.40;;;;;;;4.75;61.94;96464.63;5073727;28;20079;-62
2023/02/01 06:40:42;;;;;;;2.50;1.60;;;;;;;7.03;53.96;96478.28;5073236;28;20052;-62
2023/02/01 06:43:09;;;;;;;4.33;2.17;;;;;;;8.32;47.28;96475.69;5073209;28;20513;-62
2023/02/01 06:45:36;;;;;;;3.80;1.50;;;;;;;9.80;42.96;96473.53;5073520;28;20441;-63
2023/02/01 06:48:03;;;;;;;2.17;1.40;;;;;;;11.56;40.63;96467.59;5073155;28;20106;-63
2023/02/01 06:50:30;;;;;;;3.58;1.50;;;;;;;12.19;38.62;96471.00;5073189;28;20465;-63
2023/02/01 06:52:58;;;;;;;2.95;1.48;;;;;;;13.56;37.32;96480.25;5073187;28;20451;-63
2023/02/01 06:55:25;;;;;;;3.67;2.00;;;;;;;14.31;35.02;96484.28;5073313;28;20055;-63
2023/02/01 06:57:56;;;;;;;5.63;2.05;;;;;;;15.24;32.36;96488.84;5073138;28;20049;-63
2023/02/01 07:00:24;;;;;;;2.67;1.80;;;;;;;15.84;30.29;96483.63;5073412;28;20380;-63
2023/02/01 07:02:52;;;;;;;4.47;2.25;;;;;;;16.87;31.27;96481.75;5073050;28;20048;-63
2023/02/01 07:05:19;;;;;;;5.68;2.90;;;;;;;17.72;29.65;96483.28;5073240;28;20052;-64
2023/02/01 07:07:46;;;;;;;3.53;1.58;;;;;;;17.97;27.55;96489.50;5073085;28;20076;-63
2023/02/01 07:10:14;;;;;;;2.88;1.45;;;;;;;18.25;29.77;96497.38;5073023;28;20131;-64
2023/02/01 07:12:41;;;;;;;2.25;1.30;;;;;;;18.23;28.22;96500.13;5072637;28;20048;-64
2023/02/01 07:15:11;;;;;;;3.05;1.73;;;;;;;18.24;28.71;96503.63;5075976;28;20452;-64
2023/02/01 07:17:38;;;;;;;5.53;3.72;;;;;;;18.30;28.74;96511.13;5077309;28;20060;-64
2023/02/01 07:20:12;;;;;;;10.57;7.55;;;;;;;18.40;27.86;96503.41;5076935;28;20495;-64
2023/02/01 07:22:39;;;;;;;8.90;5.25;;;;;;;18.18;26.60;96503.09;5075955;28;20092;-63
2023/02/01 07:25:07;;;;;;;8.10;3.60;;;;;;;17.62;27.05;96500.72;5076967;28;20124;-64
2023/02/01 07:27:36;;;;;;;3.05;1.55;;;;;;;16.84;27.04;96495.16;5076978;28;20080;-63
2023/02/01 07:30:04;;;;;;;5.40;3.40;;;;;;;15.37;28.00;96506.56;5077154;28;20074;-63
2023/02/01 07:32:35;;;;;;;2.40;1.42;;;;;;;14.01;32.79;96512.16;5076722;28;20117;-63
2023/02/01 07:35:03;;;;;;;2.42;1.58;;;;;;;12.24;36.37;96514.47;5076579;28;20091;-63
2023/02/01 07:37:30;;;;;;;2.83;1.85;;;;;;;10.51;40.73;96521.53;5076804;28;20083;-62
2023/02/01 07:39:59;;;;;;;2.72;1.90;;;;;;;9.52;42.50;96529.34;5076968;28;20051;-62
2023/02/01 07:42:26;;;;;;;3.10;1.67;;;;;;;8.69;44.82;96539.78;5076659;28;20052;-62
2023/02/01 07:44:54;;;;;;;4.38;2.63;;;;;;;7.91;46.83;96530.69;5076746;28;20048;-62
2023/02/01 07:47:21;;;;;;;2.38;1.90;;;;;;;7.40;48.32;96528.53;5076573;28;20402;-62
2023/02/01 07:49:51;;;;;;;2.90;2.15;;;;;;;6.95;50.00;96542.63;5076786;28;20078;-62
2023/02/01 07:52:19;;;;;;;3.00;1.77;;;;;;;6.53;50.65;96540.97;5076378;28;20055;-61
2023/02/01 07:54:46;;;;;;;4.30;2.08;;;;;;;6.15;52.44;96536.56;5076565;28;20048;-61
2023/02/01 07:57:14;;;;;;;3.50;2.20;;;;;;;5.83;53.11;96535.41;5076331;28;20051;-62
2023/02/01 08:01:19;;;;;;;4.10;1.67;;;;;;;5.51;54.50;96529.09;5076260;28;20058;-62
2023/02/01 08:02:32;;;;;;;3.05;2.00;;;;;;;5.27;55.88;96537.25;5076314;28;20044;-62
2023/02/01 08:05:00;;;;;;;3.70;1.80;;;;;;;5.11;56.83;96539.25;5076162;28;20055;-61
2023/02/01 08:07:28;;;;;;;4.97;2.45;;;;;;;4.97;57.48;96536.03;5076020;28;20045;-62
2023/02/01 08:09:55;;;;;;;4.10;2.30;;;;;;;4.85;57.73;96534.47;5076104;28;20150;-62
2023/02/01 08:12:25;;;;;;;2.88;2.00;;;;;;;4.72;57.50;96526.88;5075879;28;20052;-61
2023/02/01 08:14:52;;;;;;;3.95;2.20;;;;;;;4.62;58.32;96535.66;5076004;28;20048;-61
2023/02/01 08:17:20;;;;;;;4.00;2.28;;;;;;;4.53;58.21;96529.75;5075814;28;20045;-61
2023/02/01 08:19:47;;;;;;;3.85;2.33;;;;;;;4.43;58.41;96526.41;5076032;28;20048;-61
2023/02/01 08:22:16;;;;;;;3.97;2.20;;;;;;;4.37;58.19;96528.25;5075865;28;20051;-61
2023/02/01 08:24:44;;;;;;;3.53;2.20;;;;;;;4.35;58.31;96542.94;5075427;28;20083;-62
2023/02/01 08:27:12;;;;;;;2.97;2.10;;;;;;;4.33;59.18;96529.16;5075923;28;20049;-61
2023/02/01 08:29:39;;;;;;;2.13;1.92;;;;;;;4.27;59.83;96527.50;5075736;28;20102;-62
2023/02/01 08:32:06;;;;;;;2.50;2.00;;;;;;;4.20;59.72;96524.13;5075684;28;20102;-61
2023/02/01 08:34:34;;;;;;;2.53;2.08;;;;;;;4.26;59.93;96533.56;5075854;28;20052;-61
2023/02/01 08:37:01;;;;;;;3.50;2.20;;;;;;;4.27;60.20;96541.31;5075562;28;20047;-62
2023/02/01 08:39:30;;;;;;;3.30;2.03;;;;;;;4.27;60.33;96541.31;5075532;28;20131;-61
2023/02/01 08:44:42;;;;;;;5.45;4.88;;;;;;;4.21;60.40;96540.53;5075537;28;20098;-61
2023/02/01 08:47:09;;;;;;;4.97;3.47;;;;;;;4.10;61.73;96543.25;5075507;28;20048;-61
2023/02/01 08:49:36;;;;;;;5.85;3.15;;;;;;;4.02;61.83;96549.38;5075393;28;20044;-61
2023/02/01 08:52:03;;;;;;;4.03;2.92;;;;;;;3.90;62.01;96546.94;5075566;28;20135;-62
2023/02/01 08:54:32;;;;;;;4.15;2.53;;;;;;;3.82;62.55;96548.75;5075301;28;20052;-61
2023/02/01 08:56:59;;;;;;;5.20;3.40;;;;;;;3.77;63.38;96541.03;5075454;28;20047;-61
2023/02/01 08:59:27;;;;;;;3.25;2.63;;;;;;;3.75;65.53;96540.19;5075261;28;20045;-61
2023/02/01 09:01:55;;;;;;;5.47;2.72;;;;;;;3.78;65.39;96548.78;5075079;28;20545;-61
2023/02/01 09:04:22;;;;;;;4.20;2.10;;;;;;;3.77;64.63;96536.72;5075054;28;20490;-61
2023/02/01 09:06:50;;;;;;;4.65;2.53;;;;;;;3.78;65.75;96537.56;5074989;28;20552;-61
2023/02/01 09:09:17;;;;;;;4.00;1.90;;;;;;;3.80;65.58;96533.25;5074989;28;20044;-62
2023/02/01 09:11:46;;;;;;;2.95;2.20;;;;;;;3.84;65.30;96537.50;5074776;28;20099;-62
2023/02/01 09:14:13;;;;;;;5.97;2.22;;;;;;;3.83;65.09;96533.22;5074784;28;20044;-62
2023/02/01 09:16:40;;;;;;;6.65;3.00;;;;;;;3.86;64.45;96529.72;5074901;28;20041;-62
2023/02/01 09:19:08;;;;;;;9.00;3.25;;;;;;;3.90;64.81;96521.03;5074804;28;20085;-62
2023/02/01 09:21:35;;;;;;;3.10;2.10;;;;;;;3.92;66.38;96525.31;5074773;28;20134;-62
2023/02/01 09:24:03;;;;;;;5.18;1.92;;;;;;;3.91;65.83;96533.97;5075114;28;20049;-61
2023/02/01 09:26:31;;;;;;;3.30;2.10;;;;;;;3.87;64.69;96523.66;5074563;28;20056;-62
2023/02/01 09:29:00;;;;;;;7.35;2.22;;;;;;;3.96;64.69;96526.16;5074809;28;20048;-62
2023/02/01 09:31:27;;;;;;;7.15;2.47;;;;;;;3.97;64.00;96533.03;5074709;28;20059;-61
2023/02/01 09:33:55;;;;;;;6.53;3.08;;;;;;;4.02;64.25;96520.03;5074406;28;20509;-61
2023/02/01 09:36:23;;;;;;;4.57;3.65;;;;;;;4.10;63.27;96515.66;5073777;28;20087;-62
2023/02/01 09:38:51;;;;;;;7.72;3.08;;;;;;;4.12;61.06;96519.06;5074544;28;20151;-62
2023/02/01 09:41:34;;;;;;;6.50;2.80;;;;;;;4.15;59.24;96516.44;5074423;28;20052;-62
2023/02/01 09:44:12;;;;;;;5.43;3.40;;;;;;;4.24;61.81;96515.44;5074409;28;20048;-62
2023/02/01 09:46:39;;;;;;;6.28;3.35;;;;;;;4.43;62.07;96516.06;5074287;28;20045;-62
2023/02/01 09:49:13;;;;;;;5.45;3.10;;;;;;;4.63;61.82;96508.88;5074149;28;20482;-62
2023/02/01 09:51:44;;;;;;;7.22;3.78;;;;;;;4.83;60.26;96505.13;5074181;28;20052;-62
2023/02/01 09:54:16;;;;;;;6.85;2.78;;;;;;;4.93;60.53;96504.97;5074045;28;20604;-62
2023/02/01 09:56:50;;;;;;;5.68;2.80;;;;;;;4.93;60.50;96506.69;5074086;28;20048;-62
2023/02/01 09:59:30;;;;;;;5.88;3.38;;;;;;;4.91;59.16;96498.94;5074018;28;20106;-63
2023/02/01 10:02:00;;;;;;;3.88;2.80;;;;;;;5.03;59.10;96504.81;5073947;28;20049;-62
2023/02/01 10:04:27;;;;;;;4.43;2.80;;;;;;;5.15;60.36;96494.22;5073881;28;20056;-62
2023/02/01 10:07:14;;;;;;;4.75;2.95;;;;;;;5.21;61.27;96495.00;5073847;28;20127;-62
2023/02/01 10:09:55;;;;;;;3.28;2.92;;;;;;;5.35;60.13;96492.16;5073832;28;20048;-62
2023/02/01 10:12:52;;;;;;;3.97;2.50;;;;;;;5.39;57.36;96480.88;5073689;28;20433;-62
2023/02/01 10:15:34;;;;;;;6.38;2.83;;;;;;;5.50;57.10;96485.84;5061023;28;20144;-63
2023/02/01 10:18:17;;;;;;;2.72;2.25;;;;;;;5.64;57.32;96481.25;5073695;28;20102;-62
2023/02/01 10:20:57;;;;;;;4.13;2.38;;;;;;;5.77;55.98;96481.00;5073638;28;20056;-62
2023/02/01 10:23:40;;;;;;;2.00;1.80;;;;;;;5.86;57.71;96465.25;5073533;28;20047;-62
2023/02/01 10:26:18;;;;;;;5.63;3.08;;;;;;;5.77;60.05;96466.28;5073438;28;20045;-62
2023/02/01 10:28:50;;;;;;;3.33;2.80;;;;;;;5.92;59.57;96461.66;5073674;28;20048;-62
2023/02/01 10:31:22;;;;;;;4.60;3.13;;;;;;;5.88;58.36;96458.28;5073537;28;20051;-63
2023/02/01 10:33:52;;;;;;;3.70;2.10;;;;;;;5.71;57.22;96456.03;5073325;28;20088;-62
2023/02/01 10:36:25;;;;;;;4.03;2.63;;;;;;;5.69;59.19;96458.66;5073413;28;20456;-62
2023/02/01 10:38:52;;;;;;;3.90;3.10;;;;;;;5.50;62.05;96455.56;5073353;28;20049;-62
2023/02/01 10:41:23;;;;;;;4.07;3.05;;;;;;;5.53;60.46;96450.31;5073167;28;20040;-63
2023/02/01 10:43:54;;;;;;;3.05;2.53;;;;;;;5.56;60.85;96445.06;5073450;28;20399;-63
2023/02/01 10:46:25;;;;;;;4.32;2.67;;;;;;;5.51;60.07;96448.66;5073526;28;20079;-62
2023/02/01 10:48:57;;;;;;;4.50;2.53;;;;;;;5.40;60.46;96449.72;5073181;28;20048;-63
2023/02/01 10:51:30;;;;;;;6.00;2.10;;;;;;;5.27;59.76;96441.28;5073162;28;20410;-62
2023/02/01 10:54:01;;;;;;;8.48;2.85;;;;;;;5.23;60.08;96436.16;5073051;28;20048;-62
2023/02/01 10:56:31;;;;;;;3.40;2.60;;;;;;;5.26;60.24;96433.53;5073133;28;20052;-63
2023/02/01 10:59:03;;;;;;;3.60;2.50;;;;;;;5.42;61.49;96431.53;5073114;28;20084;-62
2023/02/01 11:01:36;;;;;;;5.40;2.63;;;;;;;5.45;63.15;96418.50;5072957;28;20044;-63
2023/02/01 11:04:05;;;;;;;5.22;3.00;;;;;;;5.61;64.31;96426.81;5072963;28;20498;-62
2023/02/01 11:06:35;;;;;;;3.05;2.47;;;;;;;5.71;63.33;96417.09;5072919;28;20083;-62
2023/02/01 11:09:12;;;;;;;5.97;2.38;;;;;;;5.81;62.25;96418.59;5073000;28;20048;-62
2023/02/01 11:11:56;;;;;;;5.55;3.20;;;;;;;5.78;64.12;96407.44;5072890;28;20040;-62
2023/02/01 11:14:35;;;;;;;5.00;3.35;;;;;;;5.69;62.33;96409.34;5072807;28;20059;-62
2023/02/01 11:17:19;;;;;;;4.30;3.10;;;;;;;5.68;62.20;96396.38;5073000;28;20084;-62
2023/02/01 11:19:46;;;;;;;3.08;2.42;;;;;;;5.59;59.57;96389.66;5072831;28;20131;-62
2023/02/01 11:22:16;;;;;;;3.85;2.50;;;;;;;5.64;60.58;96387.81;5072894;28;20055;-62
2023/02/01 11:24:47;;;;;;;4.03;2.58;;;;;;;5.78;61.75;96391.88;5072996;28;20056;-63
2023/02/01 11:27:18;;;;;;;9.68;4.70;;;;;;;5.82;59.20;96383.13;5072979;28;20044;-62
2023/02/01 11:29:51;;;;;;;7.22;2.88;;;;;;;5.86;58.45;96384.75;5073027;28;20045;-63
2023/02/01 11:32:24;;;;;;;6.20;3.75;;;;;;;5.86;58.56;96376.13;5073088;28;20060;-62
2023/02/01 11:34:55;;;;;;;5.00;2.90;;;;;;;5.76;59.09;96371.13;5072771;28;20079;-63
2023/02/01 11:37:26;;;;;;;5.70;4.00;;;;;;;5.81;57.95;96366.69;5072945;28;20048;-62
2023/02/01 11:39:58;;;;;;;4.90;3.58;;;;;;;5.93;58.50;96359.53;5072732;28;20045;-62
2023/02/01 11:42:27;;;;;;;4.88;2.70;;;;;;;5.98;60.01;96355.09;5072724;28;20101;-62
2023/02/01 11:45:19;;;;;;;4.05;2.85;;;;;;;6.04;58.29;96349.78;5072802;28;20052;-62
2023/02/01 11:47:52;;;;;;;6.68;5.13;;;;;;;6.05;56.94;96354.06;5072691;28;20056;-62
2023/02/01 11:50:23;;;;;;;5.80;2.70;;;;;;;6.14;57.07;96346.97;5072587;28;20102;-62
2023/02/01 11:53:06;;;;;;;3.45;2.55;;;;;;;6.12;57.20;96348.75;5072568;28;20056;-62
2023/02/01 11:55:52;;;;;;;4.35;2.17;;;;;;;6.18;56.16;96348.59;5073046;28;20075;-62
2023/02/01 11:58:44;;;;;;;5.10;3.55;;;;;;;6.22;56.33;96346.78;5072521;28;20582;-62
2023/02/01 12:01:27;;;;;;;4.03;2.78;;;;;;;6.26;56.34;96346.66;5072345;28;20109;-63
2023/02/01 12:04:32;;;;;;;5.15;3.42;;;;;;;6.17;57.26;96346.91;5076236;28;20059;-62
2023/02/01 12:07:12;;;;;;;3.20;1.90;;;;;;;6.21;56.19;96342.47;5045552;28;20473;-62
2023/02/01 12:10:00;;;;;;;2.55;2.13;;;;;;;6.15;55.72;96343.47;5076090;28;20471;-62
2023/02/01 12:12:39;;;;;;;2.85;1.80;;;;;;;6.06;56.02;96339.34;5075922;28;20139;-62
2023/02/01 12:15:29;;;;;;;2.50;1.85;;;;;;;5.91;58.06;96336.19;5075963;28;20049;-62
2023/02/01 12:18:26;;;;;;;3.40;1.60;;;;;;;5.90;55.68;96334.47;5075942;28;20123;-62
2023/02/01 12:21:05;;;;;;;2.92;1.98;;;;;;;5.86;56.23;96332.84;5075978;28;20493;-62